createdAt,value
2022-11-26T00:02:25.911Z,101699.22
2022-11-26T00:04:55.679Z,101691.44
2022-11-26T00:07:26.932Z,101702.59
2022-11-26T00:09:57.305Z,101697.44
2022-11-26T00:12:32.142Z,101697.31
2022-11-26T00:15:22.866Z,101699.13
2022-11-26T00:17:52.359Z,101699.94
2022-11-26T00:20:23.598Z,101705.22
2022-11-26T00:22:54.060Z,101703.19
2022-11-26T00:25:25.437Z,101705.03
2022-11-26T00:27:55.649Z,101690.53
2022-11-26T00:30:26.733Z,101704.25
2022-11-26T00:32:58.868Z,101705.03
2022-11-26T00:35:27.072Z,101700.88
2022-11-26T00:37:57.087Z,101706.88
2022-11-26T00:40:27.640Z,101705.19
2022-11-26T00:43:01.211Z,101708.53
2022-11-26T00:45:32.044Z,101707.66
2022-11-26T00:48:02.181Z,101706.72
2022-11-26T00:50:44.079Z,101705.63
2022-11-26T00:53:19.636Z,101709.81
2022-11-26T00:55:50.892Z,101700.53
2022-11-26T00:58:29.250Z,101699.00
2022-11-26T01:00:59.373Z,101701.63
2022-11-26T01:03:27.827Z,101706.31
2022-11-26T01:05:59.133Z,101712.13
2022-11-26T01:08:32.933Z,101712.03
2022-11-26T01:11:02.456Z,101708.31
2022-11-26T01:13:32.019Z,101713.88
2022-11-26T01:16:01.626Z,101713.69
2022-11-26T01:18:33.417Z,101716.94
2022-11-26T01:21:01.693Z,101710.06
2022-11-26T01:23:29.594Z,101712.47
2022-11-26T01:25:57.346Z,101710.28
2022-11-26T01:28:25.515Z,101711.56
2022-11-26T01:30:53.318Z,101720.56
2022-11-26T01:33:23.971Z,101718.09
2022-11-26T01:35:52.213Z,101716.94
2022-11-26T01:38:19.997Z,101718.37
2022-11-26T01:41:17.309Z,101712.66
2022-11-26T01:43:48.186Z,101715.94
2022-11-26T01:46:22.680Z,101723.69
2022-11-26T01:48:51.127Z,101719.38
2022-11-26T01:51:27.594Z,101721.16
2022-11-26T01:54:00.623Z,101716.38
2022-11-26T01:56:41.057Z,101681.78
2022-11-26T01:59:26.449Z,101718.59
2022-11-26T02:01:57.789Z,101719.06
2022-11-26T02:04:37.640Z,101718.88
2022-11-26T02:07:06.321Z,101714.13
2022-11-26T02:09:34.564Z,101727.25
2022-11-26T02:12:05.684Z,101717.84
2022-11-26T02:14:39.052Z,101724.44
2022-11-26T02:17:32.461Z,101719.47
2022-11-26T02:20:24.799Z,101724.03
2022-11-26T02:23:08.151Z,101725.59
2022-11-26T02:25:54.785Z,101732.16
2022-11-26T02:29:04.240Z,101742.31
2022-11-26T02:31:41.190Z,101745.69
2022-11-26T02:34:15.636Z,101738.66
2022-11-26T02:37:02.269Z,101739.00
2022-11-26T02:39:31.301Z,101742.53
2022-11-26T02:42:02.598Z,101740.12
2022-11-26T02:44:49.494Z,101741.81
2022-11-26T02:47:19.636Z,101745.28
2022-11-26T02:49:50.868Z,101745.09
2022-11-26T02:52:20.476Z,101745.78
2022-11-26T02:54:49.929Z,101748.34
2022-11-26T02:57:21.608Z,101750.44
2022-11-26T02:59:49.866Z,101749.78
2022-11-26T03:02:28.543Z,101758.56
2022-11-26T03:05:00.673Z,101754.78
2022-11-26T03:07:32.926Z,101749.22
2022-11-26T03:10:02.560Z,101750.69
2022-11-26T03:12:33.880Z,101764.75
2022-11-26T03:15:02.167Z,101757.34
2022-11-26T03:17:31.586Z,101740.97
2022-11-26T03:19:59.501Z,101762.84
2022-11-26T03:22:27.766Z,101757.72
2022-11-26T03:24:55.601Z,101766.69
2022-11-26T03:27:23.540Z,101770.97
2022-11-26T03:29:51.694Z,101767.97
2022-11-26T03:32:19.515Z,101768.66
2022-11-26T03:34:47.348Z,101762.34
2022-11-26T03:37:15.681Z,101768.91
2022-11-26T03:39:43.817Z,101762.81
2022-11-26T03:42:14.726Z,101769.19
2022-11-26T03:44:42.904Z,101772.87
2022-11-26T03:47:10.823Z,101769.91
2022-11-26T03:49:38.739Z,101771.94
2022-11-26T03:52:07.200Z,101769.72
2022-11-26T03:54:35.179Z,101768.31
2022-11-26T03:57:02.944Z,101768.06
2022-11-26T03:59:31.296Z,101776.13
2022-11-26T04:02:02.112Z,101764.28
2022-11-26T04:04:33.081Z,101779.22
2022-11-26T04:07:01.564Z,101772.94
2022-11-26T04:09:32.574Z,101786.44
2022-11-26T04:12:00.833Z,101782.19
2022-11-26T04:14:28.680Z,101790.59
2022-11-26T04:16:56.598Z,101793.16
2022-11-26T04:19:24.830Z,101796.06
2022-11-26T04:21:52.770Z,101787.81
2022-11-26T04:24:20.568Z,101801.22
2022-11-26T04:26:48.813Z,101790.25
2022-11-26T04:29:16.511Z,101792.97
2022-11-26T04:31:47.424Z,101788.16
2022-11-26T04:34:18.863Z,101774.78
2022-11-26T04:36:49.835Z,101779.16
2022-11-26T04:39:18.054Z,101781.63
2022-11-26T04:41:46.019Z,101795.97
2022-11-26T04:44:13.852Z,101796.72
2022-11-26T04:46:42.067Z,101801.75
2022-11-26T04:49:09.862Z,101790.47
2022-11-26T04:51:37.654Z,101806.84
2022-11-26T04:54:11.429Z,101803.88
2022-11-26T04:56:41.538Z,101809.44
2022-11-26T04:59:09.783Z,101805.63
2022-11-26T05:01:37.780Z,101812.75
2022-11-26T05:04:08.526Z,101814.25
2022-11-26T05:06:36.694Z,101816.47
2022-11-26T05:09:04.688Z,101811.81
2022-11-26T05:11:32.377Z,101809.37
2022-11-26T05:14:00.649Z,101815.72
2022-11-26T05:16:28.481Z,101820.03
2022-11-26T05:18:56.672Z,101812.66
2022-11-26T05:21:24.987Z,101814.41
2022-11-26T05:23:52.646Z,101812.69
2022-11-26T05:26:20.627Z,101824.09
2022-11-26T05:28:48.671Z,101822.00
2022-11-26T05:31:16.568Z,101820.28
2022-11-26T05:33:44.386Z,101827.78
2022-11-26T05:36:12.576Z,101818.66
2022-11-26T05:38:40.386Z,101810.97
2022-11-26T05:41:08.357Z,101835.78
2022-11-26T05:43:36.491Z,101820.50
2022-11-26T05:46:09.264Z,101828.28
2022-11-26T05:48:37.413Z,101836.31
2022-11-26T05:51:05.346Z,101837.72
2022-11-26T05:53:33.237Z,101842.59
2022-11-26T05:56:01.430Z,101840.13
2022-11-26T05:58:32.460Z,101846.47
2022-11-26T06:01:00.614Z,101850.87
2022-11-26T06:03:31.643Z,101851.41
2022-11-26T06:05:59.467Z,101853.97
2022-11-26T06:08:27.646Z,101851.84
2022-11-26T06:10:58.877Z,101856.28
2022-11-26T06:13:26.629Z,101855.31
2022-11-26T06:15:54.474Z,101857.69
2022-11-26T06:18:22.673Z,101859.00
2022-11-26T06:20:50.444Z,101862.50
2022-11-26T06:23:18.283Z,101861.50
2022-11-26T06:25:46.501Z,101854.78
2022-11-26T06:28:14.373Z,101858.69
2022-11-26T06:30:45.200Z,101860.53
2022-11-26T06:33:13.925Z,101856.94
2022-11-26T06:35:41.772Z,101861.69
2022-11-26T06:38:12.621Z,101864.19
2022-11-26T06:40:40.798Z,101856.63
2022-11-26T06:43:08.774Z,101855.16
2022-11-26T06:45:37.129Z,101863.41
2022-11-26T06:48:05.335Z,101867.34
2022-11-26T06:50:33.697Z,101866.22
2022-11-26T06:53:01.476Z,101846.38
2022-11-26T06:55:32.544Z,101868.22
2022-11-26T06:58:00.351Z,101865.59
2022-11-26T07:00:28.158Z,101862.25
2022-11-26T07:02:56.378Z,101866.31
2022-11-26T07:05:24.139Z,101863.00
2022-11-26T07:07:51.893Z,101873.09
2022-11-26T07:10:20.564Z,101869.22
2022-11-26T07:12:48.403Z,101877.75
2022-11-26T07:15:16.276Z,101878.72
2022-11-26T07:17:44.487Z,101877.63
2022-11-26T07:20:12.939Z,101874.03
2022-11-26T07:22:40.846Z,101885.94
2022-11-26T07:25:12.560Z,101877.34
2022-11-26T07:27:41.424Z,101884.25
2022-11-26T07:30:10.503Z,101889.72
2022-11-26T07:32:38.859Z,101890.59
2022-11-26T07:35:07.918Z,101898.06
2022-11-26T07:37:36.361Z,101895.59
2022-11-26T07:40:06.743Z,101900.59
2022-11-26T07:42:35.066Z,101897.31
2022-11-26T07:45:04.858Z,101903.75
2022-11-26T07:47:32.706Z,101900.59
2022-11-26T07:50:00.840Z,101899.66
2022-11-26T07:52:31.012Z,101900.19
2022-11-26T07:54:58.808Z,101903.09
2022-11-26T07:57:26.795Z,101899.91
2022-11-26T07:59:54.916Z,101901.41
2022-11-26T08:02:22.605Z,101906.97
2022-11-26T08:04:50.981Z,101893.94
2022-11-26T08:07:24.633Z,101891.56
2022-11-26T08:09:54.177Z,101895.63
2022-11-26T08:12:22.067Z,101887.56
2022-11-26T08:14:49.909Z,101900.28
2022-11-26T08:17:18.151Z,101897.78
2022-11-26T08:19:45.890Z,101903.41
2022-11-26T08:22:13.654Z,101901.63
2022-11-26T08:24:41.865Z,101897.78
2022-11-26T08:27:09.607Z,101899.91
2022-11-26T08:29:40.227Z,101903.59
2022-11-26T08:32:08.431Z,101898.44
2022-11-26T08:34:36.452Z,101903.09
2022-11-26T08:39:49.578Z,101894.47
2022-11-26T08:42:17.324Z,101895.28
2022-11-26T08:44:44.949Z,101902.03
2022-11-26T08:47:12.970Z,101905.94
2022-11-26T08:49:40.633Z,101902.13
2022-11-26T08:52:08.367Z,101892.16
2022-11-26T08:54:38.754Z,101890.34
2022-11-26T08:57:09.884Z,101893.97
2022-11-26T08:59:38.162Z,101894.69
2022-11-26T09:04:51.294Z,101895.00
2022-11-26T09:07:19.161Z,101891.50
2022-11-26T09:09:46.876Z,101899.16
2022-11-26T09:12:15.016Z,101896.25
2022-11-26T09:14:43.097Z,101888.50
2022-11-26T09:17:12.380Z,101895.28
2022-11-26T09:19:40.593Z,101890.91
2022-11-26T09:22:08.336Z,101896.50
2022-11-26T09:24:36.564Z,101897.50
2022-11-26T09:27:08.038Z,101895.69
2022-11-26T09:29:36.506Z,101898.44
2022-11-26T09:34:53.182Z,101901.09
2022-11-26T09:37:21.612Z,101916.16
2022-11-26T09:39:50.111Z,101904.87
2022-11-26T09:42:39.930Z,101897.84
2022-11-26T09:45:33.535Z,101895.44
2022-11-26T09:48:04.050Z,101897.38
2022-11-26T09:50:38.804Z,101900.53
2022-11-26T09:53:19.465Z,101901.91
2022-11-26T09:55:50.675Z,101891.09
2022-11-26T09:58:31.874Z,101893.69
2022-11-26T10:01:01.592Z,101899.41
2022-11-26T10:03:32.556Z,101895.19
2022-11-26T10:06:15.986Z,101895.22
2022-11-26T10:09:03.043Z,101894.37
2022-11-26T10:12:25.516Z,101899.91
2022-11-26T10:15:18.463Z,101894.31
2022-11-26T10:17:55.137Z,101891.22
2022-11-26T10:20:41.785Z,101892.00
2022-11-26T10:23:12.358Z,101886.59
2022-11-26T10:25:58.728Z,101892.03
2022-11-26T10:28:37.940Z,101892.47
2022-11-26T10:31:23.874Z,101898.63
2022-11-26T10:33:59.169Z,101895.00
2022-11-26T10:36:39.757Z,101902.66
2022-11-26T10:39:12.901Z,101903.78
2022-11-26T10:41:41.105Z,101893.16
2022-11-26T10:44:30.592Z,101899.06
2022-11-26T10:46:59.714Z,101898.41
2022-11-26T10:49:29.830Z,101901.63
2022-11-26T10:52:04.225Z,101895.47
2022-11-26T10:54:38.764Z,101899.69
2022-11-26T10:57:16.061Z,101893.56
2022-11-26T10:59:52.146Z,101885.72
2022-11-26T11:02:28.853Z,101888.94
2022-11-26T11:04:59.001Z,101902.34
2022-11-26T11:07:38.954Z,101902.25
2022-11-26T11:10:18.030Z,101896.50
2022-11-26T11:13:12.619Z,101886.47
2022-11-26T11:15:41.833Z,101882.34
2022-11-26T11:18:12.999Z,101891.72
2022-11-26T11:20:43.581Z,101904.66
2022-11-26T11:23:11.667Z,101883.66
2022-11-26T11:25:42.255Z,101892.03
2022-11-26T11:28:12.895Z,101898.88
2022-11-26T11:30:47.698Z,101901.94
2022-11-26T11:33:15.350Z,101904.03
2022-11-26T11:35:43.622Z,101901.13
2022-11-26T11:38:57.538Z,101901.50
2022-11-26T11:41:27.506Z,101908.75
2022-11-26T11:44:07.205Z,101904.59
2022-11-26T11:47:14.890Z,101907.09
2022-11-26T11:50:06.953Z,101907.00
2022-11-26T11:52:42.211Z,101902.81
2022-11-26T11:55:46.275Z,101911.69
2022-11-26T11:58:24.397Z,101908.34
2022-11-26T12:01:20.401Z,101900.28
2022-11-26T12:04:37.002Z,101901.56
2022-11-26T12:07:35.705Z,101908.56
2022-11-26T12:10:27.131Z,101896.38
2022-11-26T12:13:00.679Z,101908.16
2022-11-26T12:15:44.140Z,101907.41
2022-11-26T12:18:48.043Z,101901.19
2022-11-26T12:21:19.723Z,101912.84
2022-11-26T12:23:50.056Z,101910.47
2022-11-26T12:26:25.399Z,101904.97
2022-11-26T12:28:57.030Z,101907.00
2022-11-26T12:31:53.013Z,101918.84
2022-11-26T12:34:33.983Z,101912.63
2022-11-26T12:37:32.632Z,101924.97
2022-11-26T12:40:16.678Z,101922.22
2022-11-26T12:43:04.950Z,101923.34
2022-11-26T12:46:00.913Z,101926.81
2022-11-26T12:48:35.283Z,101922.13
2022-11-26T12:51:18.563Z,101923.53
2022-11-26T12:54:46.912Z,101907.47
2022-11-26T12:57:20.190Z,101908.66
2022-11-26T13:00:06.624Z,101916.69
2022-11-26T13:02:46.681Z,101925.06
2022-11-26T13:05:30.725Z,101924.56
2022-11-26T13:08:13.789Z,101934.03
2022-11-26T13:11:10.051Z,101934.66
2022-11-26T13:13:43.847Z,101925.41
2022-11-26T13:16:35.034Z,101927.69
2022-11-26T13:19:25.153Z,101927.94
2022-11-26T13:22:17.861Z,101925.06
2022-11-26T13:24:59.038Z,101917.78
2022-11-26T13:27:29.929Z,101919.59
2022-11-26T13:30:21.549Z,101925.19
2022-11-26T13:33:19.858Z,101924.87
2022-11-26T13:36:24.645Z,101936.62
2022-11-26T13:39:11.659Z,101928.44
2022-11-26T13:42:00.252Z,101934.00
2022-11-26T13:44:43.776Z,101927.69
2022-11-26T13:47:17.563Z,101933.22
2022-11-26T13:50:05.936Z,101934.41
2022-11-26T13:52:57.530Z,101937.16
2022-11-26T13:55:30.920Z,101939.06
2022-11-26T13:58:05.905Z,101938.69
2022-11-26T14:00:35.986Z,101939.31
2022-11-26T14:03:09.744Z,101933.56
2022-11-26T14:05:49.742Z,101938.19
2022-11-26T14:08:43.563Z,101935.50
2022-11-26T14:11:33.972Z,101935.25
2022-11-26T14:14:26.647Z,101947.00
2022-11-26T14:17:19.384Z,101942.47
2022-11-26T14:19:52.351Z,101942.31
2022-11-26T14:22:20.321Z,101941.87
2022-11-26T14:24:51.126Z,101948.16
2022-11-26T14:27:22.363Z,101939.38
2022-11-26T14:29:58.255Z,101945.91
2022-11-26T14:32:30.110Z,101945.97
2022-11-26T14:34:59.305Z,101958.22
2022-11-26T14:37:31.752Z,101950.50
2022-11-26T14:40:00.179Z,101938.72
2022-11-26T14:42:31.306Z,101941.66
2022-11-26T14:45:20.688Z,101940.72
2022-11-26T14:47:51.740Z,101939.41
2022-11-26T14:50:24.043Z,101948.94
2022-11-26T14:53:00.002Z,101956.13
2022-11-26T14:55:31.103Z,101960.09
2022-11-26T14:58:14.466Z,101962.25
2022-11-26T15:00:42.792Z,101955.47
2022-11-26T15:03:40.131Z,101966.34
2022-11-26T15:06:46.683Z,101964.66
2022-11-26T15:09:19.351Z,101957.91
2022-11-26T15:12:12.806Z,101955.37
2022-11-26T15:15:14.582Z,101964.88
2022-11-26T15:17:50.672Z,101963.56
2022-11-26T15:20:21.912Z,101965.94
2022-11-26T15:22:55.437Z,101959.75
2022-11-26T15:25:32.295Z,101953.47
2022-11-26T15:28:04.529Z,101965.47
2022-11-26T15:30:39.329Z,101965.78
2022-11-26T15:33:11.210Z,101968.56
2022-11-26T15:35:40.338Z,101963.97
2022-11-26T15:38:15.828Z,101957.47
2022-11-26T15:40:49.103Z,101939.47
2022-11-26T15:43:42.021Z,101945.22
2022-11-26T15:46:30.880Z,101950.62
2022-11-26T15:49:19.124Z,101950.47
2022-11-26T15:52:01.222Z,101954.12
2022-11-26T15:55:04.425Z,101958.44
2022-11-26T15:57:40.572Z,101953.94
2022-11-26T16:00:28.333Z,101948.37
2022-11-26T16:02:56.555Z,101949.69
2022-11-26T16:05:29.059Z,101956.50
2022-11-26T16:08:00.620Z,101957.81
2022-11-26T16:10:31.839Z,101955.75
2022-11-26T16:13:20.686Z,101959.81
2022-11-26T16:16:02.052Z,101959.69
2022-11-26T16:18:43.893Z,101969.37
2022-11-26T16:21:19.466Z,101965.22
2022-11-26T16:24:13.338Z,101957.06
2022-11-26T16:27:06.403Z,101956.63
2022-11-26T16:29:38.907Z,101949.06
2022-11-26T16:32:06.682Z,101958.16
2022-11-26T16:34:35.031Z,101954.19
2022-11-26T16:37:24.621Z,101944.88
2022-11-26T16:40:04.946Z,101934.06
2022-11-26T16:42:33.143Z,101943.47
2022-11-26T16:45:04.154Z,101946.97
2022-11-26T16:47:36.402Z,101958.28
2022-11-26T16:50:05.759Z,101959.66
2022-11-26T16:52:39.380Z,101951.50
2022-11-26T16:55:12.517Z,101946.25
2022-11-26T16:57:47.016Z,101948.97
2022-11-26T17:00:18.191Z,101956.66
2022-11-26T17:02:46.612Z,101949.22
2022-11-26T17:05:15.138Z,101953.66
2022-11-26T17:07:56.439Z,101956.69
2022-11-26T17:10:27.168Z,101960.16
2022-11-26T17:12:56.075Z,101958.50
2022-11-26T17:15:24.087Z,101949.19
2022-11-26T17:17:54.899Z,101954.38
2022-11-26T17:20:31.156Z,101947.66
2022-11-26T17:22:59.118Z,101951.06
2022-11-26T17:25:27.391Z,101948.94
2022-11-26T17:27:55.454Z,101960.56
2022-11-26T17:30:24.819Z,101948.78
2022-11-26T17:32:53.135Z,101956.94
2022-11-26T17:35:21.022Z,101956.09
2022-11-26T17:37:48.966Z,101952.53
2022-11-26T17:40:22.643Z,101955.63
2022-11-26T17:42:54.960Z,101964.50
2022-11-26T17:45:23.525Z,101956.91
2022-11-26T17:47:51.457Z,101960.88
2022-11-26T17:50:25.357Z,101958.75
2022-11-26T17:52:57.131Z,101958.34
2022-11-26T17:55:27.965Z,101954.31
2022-11-26T17:57:57.036Z,101965.72
2022-11-26T18:00:29.819Z,101962.22
2022-11-26T18:03:01.280Z,101951.66
2022-11-26T18:05:29.370Z,101958.41
2022-11-26T18:07:57.334Z,101960.06
2022-11-26T18:10:25.631Z,101963.75
2022-11-26T18:12:54.565Z,101960.50
2022-11-26T18:15:25.175Z,101960.41
2022-11-26T18:17:55.640Z,101963.72
2022-11-26T18:20:28.927Z,101969.25
2022-11-26T18:22:59.962Z,101964.28
2022-11-26T18:25:29.848Z,101963.72
2022-11-26T18:27:58.056Z,101959.37
2022-11-26T18:30:25.972Z,101961.59
2022-11-26T18:32:53.798Z,101963.34
2022-11-26T18:35:25.276Z,101962.25
2022-11-26T18:37:53.071Z,101956.38
2022-11-26T18:40:24.420Z,101955.72
2022-11-26T18:42:53.115Z,101970.38
2022-11-26T18:45:21.317Z,101982.16
2022-11-26T18:47:49.269Z,101974.06
2022-11-26T18:50:17.222Z,101970.94
2022-11-26T18:52:45.448Z,101958.44
2022-11-26T18:55:16.794Z,101952.00
2022-11-26T18:57:45.037Z,101980.47
2022-11-26T19:00:14.818Z,101974.34
2022-11-26T19:02:42.691Z,101977.56
2022-11-26T19:05:11.040Z,101970.13
2022-11-26T19:07:38.914Z,101989.06
2022-11-26T19:10:27.055Z,101973.31
2022-11-26T19:12:55.228Z,101968.38
2022-11-26T19:15:25.770Z,101970.66
2022-11-26T19:17:53.560Z,101966.88
2022-11-26T19:20:22.082Z,101962.00
2022-11-26T19:22:49.972Z,101972.03
2022-11-26T19:25:17.788Z,101970.81
2022-11-26T19:27:46.008Z,101968.91
2022-11-26T19:30:16.439Z,101960.56
2022-11-26T19:32:44.171Z,101964.66
2022-11-26T19:35:14.183Z,101970.25
2022-11-26T19:37:41.947Z,101979.50
2022-11-26T19:40:10.168Z,101970.78
2022-11-26T19:42:39.834Z,101970.84
2022-11-26T19:45:08.233Z,101977.78
2022-11-26T19:47:55.930Z,101978.44
2022-11-26T19:50:24.045Z,101988.38
2022-11-26T19:52:51.865Z,101995.22
2022-11-26T19:55:19.552Z,101992.13
2022-11-26T19:57:47.721Z,101988.41
2022-11-26T20:00:15.758Z,101987.09
2022-11-26T20:02:44.410Z,101998.06
2022-11-26T20:05:12.978Z,101992.34
2022-11-26T20:07:40.731Z,101997.75
2022-11-26T20:10:09.408Z,101989.50
2022-11-26T20:12:37.202Z,101987.44
2022-11-26T20:15:05.334Z,101988.09
2022-11-26T20:17:33.473Z,101983.28
2022-11-26T20:20:01.286Z,101989.87
2022-11-26T20:22:34.619Z,101977.16
2022-11-26T20:25:02.647Z,101982.53
2022-11-26T20:27:30.582Z,101982.28
2022-11-26T20:29:58.283Z,101980.84
2022-11-26T20:32:26.506Z,101985.41
2022-11-26T20:34:55.455Z,101982.44
2022-11-26T20:37:23.341Z,101991.69
2022-11-26T20:39:51.468Z,101978.97
2022-11-26T20:42:21.549Z,101979.22
2022-11-26T20:44:49.472Z,101986.37
2022-11-26T20:47:17.636Z,101985.44
2022-11-26T20:49:45.483Z,101976.66
2022-11-26T20:52:13.428Z,101964.72
2022-11-26T20:54:41.879Z,101978.22
2022-11-26T20:57:12.494Z,101959.69
2022-11-26T20:59:40.522Z,101981.38
2022-11-26T21:02:12.388Z,101978.41
2022-11-26T21:04:40.085Z,101991.94
2022-11-26T21:07:08.269Z,101996.44
2022-11-26T21:09:36.085Z,101954.03
2022-11-26T21:12:03.971Z,101999.87
2022-11-26T21:14:32.205Z,101996.22
2022-11-26T21:17:00.132Z,101997.47
2022-11-26T21:19:28.081Z,102005.78
2022-11-26T21:21:56.451Z,102001.94
2022-11-26T21:24:24.787Z,102005.59
2022-11-26T21:26:52.592Z,101991.88
2022-11-26T21:29:21.838Z,101997.00
2022-11-26T21:31:49.630Z,102002.22
2022-11-26T21:34:17.624Z,101998.72
2022-11-26T21:36:45.881Z,101995.09
2022-11-26T21:39:15.780Z,102000.97
2022-11-26T21:41:43.655Z,101988.81
2022-11-26T21:44:14.630Z,101988.19
2022-11-26T21:46:42.479Z,101999.50
2022-11-26T21:49:10.319Z,101989.72
2022-11-26T21:51:38.523Z,101988.53
2022-11-26T21:54:06.500Z,101988.72
2022-11-26T21:56:34.378Z,101996.25
2022-11-26T21:59:02.898Z,101995.06
2022-11-26T22:01:36.296Z,101997.38
2022-11-26T22:04:16.943Z,101992.94
2022-11-26T22:06:46.926Z,101992.28
2022-11-26T22:09:16.746Z,101999.44
2022-11-26T22:11:45.995Z,101999.37
2022-11-26T22:14:16.112Z,101997.88
2022-11-26T22:16:44.557Z,101989.50
2022-11-26T22:19:12.463Z,101998.09
2022-11-26T22:21:43.333Z,101992.22
2022-11-26T22:24:16.297Z,101997.44
2022-11-26T22:26:45.122Z,101990.81
2022-11-26T22:29:17.727Z,101986.34
2022-11-26T22:31:45.736Z,101983.31
2022-11-26T22:34:16.695Z,101992.31
2022-11-26T22:36:45.248Z,101984.62
2022-11-26T22:39:17.793Z,101987.59
2022-11-26T22:41:46.912Z,101991.47
2022-11-26T22:44:16.348Z,101983.78
2022-11-26T22:46:45.261Z,101989.97
2022-11-26T22:49:15.985Z,101995.81
2022-11-26T22:51:47.714Z,101989.59
2022-11-26T22:54:18.260Z,101987.56
2022-11-26T22:56:47.235Z,101979.31
2022-11-26T22:59:15.213Z,101978.38
2022-11-26T23:01:43.172Z,101984.62
2022-11-26T23:04:12.000Z,101984.94
2022-11-26T23:06:40.482Z,101979.37
2022-11-26T23:09:13.745Z,101982.87
2022-11-26T23:11:43.329Z,101988.41
2022-11-26T23:14:12.341Z,101982.41
2022-11-26T23:16:42.078Z,101989.66
2022-11-26T23:19:13.545Z,101983.84
2022-11-26T23:21:43.127Z,101970.09
2022-11-26T23:24:11.676Z,101993.59
2022-11-26T23:26:42.810Z,101987.75
2022-11-26T23:29:12.699Z,101995.03
2022-11-26T23:31:43.478Z,101994.75
2022-11-26T23:34:11.752Z,102000.63
2022-11-26T23:36:40.055Z,101998.50
2022-11-26T23:39:10.945Z,102006.13
2022-11-26T23:41:39.384Z,102009.44
2022-11-26T23:44:07.253Z,102011.00
2022-11-26T23:46:35.748Z,102008.78
2022-11-26T23:49:04.432Z,102006.16
2022-11-26T23:51:33.381Z,102007.88
2022-11-26T23:54:01.447Z,102013.09
2022-11-26T23:56:32.891Z,102014.84
2022-11-26T23:59:03.193Z,102021.84
